createdAt,value
2022-11-28T00:01:35.848Z,6.83
2022-11-28T00:04:03.560Z,8.60
2022-11-28T00:06:31.664Z,8.67
2022-11-28T00:09:00.387Z,7.83
2022-11-28T00:11:29.793Z,8.77
2022-11-28T00:13:57.455Z,8.30
2022-11-28T00:16:26.014Z,7.83
2022-11-28T00:18:56.218Z,9.27
2022-11-28T00:21:24.434Z,7.73
2022-11-28T00:23:52.985Z,7.60
2022-11-28T00:26:23.465Z,9.53
2022-11-28T00:28:53.876Z,10.03
2022-11-28T00:31:24.480Z,8.20
2022-11-28T00:33:52.928Z,8.37
2022-11-28T00:36:21.493Z,9.73
2022-11-28T00:38:50.457Z,7.97
2022-11-28T00:41:20.478Z,8.67
2022-11-28T00:43:49.656Z,10.27
2022-11-28T00:46:19.743Z,8.23
2022-11-28T00:48:48.483Z,7.37
2022-11-28T00:51:18.500Z,7.67
2022-11-28T00:53:48.687Z,9.97
2022-11-28T00:56:18.799Z,8.17
2022-11-28T00:58:49.717Z,8.70
2022-11-28T01:01:20.950Z,10.03
2022-11-28T01:03:50.954Z,9.67
2022-11-28T01:06:23.029Z,9.67
2022-11-28T01:08:51.861Z,8.77
2022-11-28T01:11:20.071Z,10.00
2022-11-28T01:13:48.888Z,7.83
2022-11-28T01:16:17.089Z,8.63
2022-11-28T01:18:47.128Z,7.37
2022-11-28T01:21:14.844Z,8.80
2022-11-28T01:23:42.880Z,10.23
2022-11-28T01:26:12.517Z,9.67
2022-11-28T01:28:40.988Z,9.97
2022-11-28T01:31:10.672Z,10.07
2022-11-28T01:33:38.383Z,9.40
2022-11-28T01:36:07.983Z,11.17
2022-11-28T01:38:36.515Z,8.50
2022-11-28T01:41:04.328Z,7.20
2022-11-28T01:43:32.852Z,9.47
2022-11-28T01:46:00.637Z,10.67
2022-11-28T01:48:32.054Z,10.13
2022-11-28T01:51:03.161Z,7.80
2022-11-28T01:53:35.960Z,10.53
2022-11-28T01:56:08.438Z,8.87
2022-11-28T01:58:40.368Z,7.33
2022-11-28T02:01:09.042Z,9.17
2022-11-28T02:03:44.280Z,10.03
2022-11-28T02:06:14.107Z,10.57
2022-11-28T02:08:43.560Z,9.40
2022-11-28T02:11:25.440Z,11.10
2022-11-28T02:14:07.064Z,8.93
2022-11-28T02:16:49.660Z,9.63
2022-11-28T02:19:44.694Z,8.60
2022-11-28T02:22:18.042Z,9.03
2022-11-28T02:24:58.532Z,9.63
2022-11-28T02:27:57.868Z,9.53
2022-11-28T02:30:33.075Z,9.17
2022-11-28T02:33:23.242Z,9.83
2022-11-28T02:35:59.561Z,9.67
2022-11-28T02:38:44.028Z,8.77
2022-11-28T02:41:20.605Z,9.13
2022-11-28T02:44:01.498Z,10.27
2022-11-28T02:46:39.137Z,9.87
2022-11-28T02:49:13.740Z,10.67
2022-11-28T02:51:44.628Z,10.63
2022-11-28T02:54:15.689Z,10.13
2022-11-28T02:56:48.290Z,11.57
2022-11-28T02:59:33.817Z,11.07
2022-11-28T03:02:02.641Z,10.53
2022-11-28T03:04:44.378Z,8.27
2022-11-28T03:07:23.945Z,9.10
2022-11-28T03:10:04.961Z,12.03
2022-11-28T03:12:48.119Z,12.47
2022-11-28T03:15:19.899Z,11.97
2022-11-28T03:17:56.121Z,12.33
2022-11-28T03:20:32.325Z,11.40
2022-11-28T03:23:12.234Z,10.17
2022-11-28T03:25:51.201Z,11.10
2022-11-28T03:28:24.534Z,10.53
2022-11-28T03:30:54.985Z,9.47
2022-11-28T03:33:26.145Z,10.80
2022-11-28T03:36:00.246Z,10.63
2022-11-28T03:38:32.762Z,12.37
2022-11-28T03:41:08.176Z,16.07
2022-11-28T03:43:42.183Z,14.27
2022-11-28T03:46:14.673Z,13.17
2022-11-28T03:48:46.257Z,12.17
2022-11-28T03:51:18.118Z,13.73
2022-11-28T03:53:52.294Z,12.50
2022-11-28T03:56:25.701Z,10.70
2022-11-28T03:58:57.610Z,11.50
2022-11-28T04:01:33.084Z,9.33
2022-11-28T04:04:10.835Z,9.87
2022-11-28T04:06:52.189Z,10.57
2022-11-28T04:09:26.084Z,8.50
2022-11-28T04:11:57.776Z,8.30
2022-11-28T04:14:33.284Z,9.27
2022-11-28T04:17:06.779Z,7.80
2022-11-28T04:19:39.845Z,7.80
2022-11-28T04:22:17.172Z,7.37
2022-11-28T04:24:49.874Z,7.73
2022-11-28T04:27:24.132Z,8.43
2022-11-28T04:29:58.048Z,10.53
2022-11-28T04:32:28.274Z,10.87
2022-11-28T04:35:02.472Z,8.70
2022-11-28T04:37:33.492Z,8.33
2022-11-28T04:40:02.011Z,9.33
2022-11-28T04:42:36.349Z,6.80
2022-11-28T04:45:10.821Z,7.30
2022-11-28T04:47:38.758Z,8.17
2022-11-28T04:50:08.062Z,7.73
2022-11-28T04:52:45.344Z,8.23
2022-11-28T04:55:19.464Z,7.27
2022-11-28T04:57:56.904Z,6.87
2022-11-28T05:00:25.142Z,8.20
2022-11-28T05:02:55.426Z,7.00
2022-11-28T05:05:24.896Z,6.73
2022-11-28T05:07:54.612Z,9.40
2022-11-28T05:10:22.512Z,7.47
2022-11-28T05:12:50.939Z,8.07
2022-11-28T05:15:19.243Z,7.60
2022-11-28T05:17:48.142Z,7.00
2022-11-28T05:20:16.863Z,9.17
2022-11-28T05:22:44.552Z,11.07
2022-11-28T05:25:13.617Z,9.63
2022-11-28T05:27:41.290Z,8.53
2022-11-28T05:30:11.004Z,8.00
2022-11-28T05:32:38.792Z,8.17
2022-11-28T05:35:06.886Z,7.67
2022-11-28T05:37:34.863Z,7.03
2022-11-28T05:40:02.665Z,8.83
2022-11-28T05:42:35.575Z,9.93
2022-11-28T05:45:03.336Z,9.27
2022-11-28T05:47:32.189Z,9.67
2022-11-28T05:50:00.126Z,8.23
2022-11-28T05:52:32.161Z,7.60
2022-11-28T05:55:01.448Z,8.90
2022-11-28T05:57:31.943Z,8.07
2022-11-28T06:00:01.022Z,10.23
2022-11-28T06:02:28.752Z,9.43
2022-11-28T06:04:56.506Z,7.03
2022-11-28T06:07:24.410Z,8.37
2022-11-28T06:09:52.110Z,7.40
2022-11-28T06:12:20.074Z,8.07
2022-11-28T06:14:47.761Z,7.63
2022-11-28T06:17:17.425Z,7.43
2022-11-28T06:19:45.291Z,8.50
2022-11-28T06:22:13.385Z,6.87
2022-11-28T06:24:41.068Z,7.90
2022-11-28T06:27:09.460Z,7.10
2022-11-28T06:29:37.106Z,9.03
2022-11-28T06:32:04.899Z,7.70
2022-11-28T06:34:34.451Z,8.93
2022-11-28T06:37:02.081Z,7.47
2022-11-28T06:39:30.136Z,8.00
2022-11-28T06:41:58.061Z,8.53
2022-11-28T06:44:26.672Z,9.50
2022-11-28T06:46:55.124Z,8.80
2022-11-28T06:49:23.438Z,8.70
2022-11-28T06:51:52.450Z,8.13
2022-11-28T06:54:20.423Z,6.57
2022-11-28T06:56:48.126Z,8.07
2022-11-28T06:59:16.313Z,6.13
2022-11-28T07:01:44.067Z,7.40
2022-11-28T07:04:11.792Z,6.50
2022-11-28T07:06:39.438Z,7.73
2022-11-28T07:09:08.784Z,5.97
2022-11-28T07:11:36.454Z,7.63
2022-11-28T07:14:04.617Z,7.53
2022-11-28T07:16:34.193Z,7.67
2022-11-28T07:19:02.336Z,9.10
2022-11-28T07:21:30.825Z,8.40
2022-11-28T07:24:00.006Z,7.20
2022-11-28T07:26:28.985Z,7.67
2022-11-28T07:29:00.113Z,6.33
2022-11-28T07:31:32.016Z,6.47
2022-11-28T07:34:02.147Z,8.10
2022-11-28T07:36:30.338Z,6.67
2022-11-28T07:39:00.455Z,8.53
2022-11-28T07:41:30.003Z,6.67
2022-11-28T07:43:59.777Z,7.07
2022-11-28T07:46:29.207Z,7.37
2022-11-28T07:48:57.979Z,7.07
2022-11-28T07:51:27.952Z,6.97
2022-11-28T07:53:56.401Z,7.57
2022-11-28T07:56:25.660Z,6.50
2022-11-28T07:58:57.925Z,8.20
2022-11-28T08:01:31.769Z,7.13
2022-11-28T08:04:01.350Z,6.43
2022-11-28T08:06:31.266Z,6.60
2022-11-28T08:09:01.831Z,7.67
2022-11-28T08:11:30.633Z,7.50
2022-11-28T08:13:59.789Z,6.33
2022-11-28T08:16:29.814Z,7.60
2022-11-28T08:18:57.757Z,7.47
2022-11-28T08:21:27.436Z,7.57
2022-11-28T08:23:57.384Z,6.27
2022-11-28T08:26:30.351Z,8.73
2022-11-28T08:29:00.933Z,7.70
2022-11-28T08:31:30.694Z,8.23
2022-11-28T08:34:01.584Z,6.70
2022-11-28T08:36:29.749Z,8.87
2022-11-28T08:39:16.696Z,6.33
2022-11-28T08:41:47.801Z,8.87
2022-11-28T08:44:17.626Z,8.97
2022-11-28T08:46:45.299Z,9.57
2022-11-28T08:49:13.612Z,9.67
2022-11-28T08:51:41.302Z,8.77
2022-11-28T08:54:09.595Z,8.07
2022-11-28T08:56:37.265Z,6.23
2022-11-28T08:59:06.965Z,5.80
2022-11-28T09:01:36.412Z,5.77
2022-11-28T09:04:05.384Z,5.83
2022-11-28T09:06:33.521Z,6.17
2022-11-28T09:09:01.938Z,6.90
2022-11-28T09:11:30.222Z,6.87
2022-11-28T09:13:57.989Z,6.40
2022-11-28T09:16:26.434Z,7.67
2022-11-28T09:18:57.397Z,7.67
2022-11-28T09:21:25.040Z,6.47
2022-11-28T09:23:55.330Z,7.43
2022-11-28T09:26:26.248Z,7.37
2022-11-28T09:28:54.872Z,6.40
2022-11-28T09:31:23.789Z,7.83
2022-11-28T09:33:51.603Z,7.97
2022-11-28T09:36:22.644Z,9.27
2022-11-28T09:38:50.498Z,8.33
2022-11-28T09:41:39.087Z,8.53
2022-11-28T09:44:14.885Z,7.40
2022-11-28T09:46:43.813Z,7.10
2022-11-28T09:49:23.084Z,5.83
2022-11-28T09:51:56.165Z,6.27
2022-11-28T09:54:33.289Z,5.67
2022-11-28T09:57:03.356Z,7.23
2022-11-28T09:59:32.728Z,5.93
2022-11-28T10:02:14.053Z,5.77
2022-11-28T10:04:46.396Z,6.13
2022-11-28T10:07:25.184Z,5.93
2022-11-28T10:10:01.172Z,6.93
2022-11-28T10:12:42.751Z,7.97
2022-11-28T10:15:38.413Z,5.97
2022-11-28T10:18:23.416Z,7.03
2022-11-28T10:20:55.816Z,6.93
2022-11-28T10:23:30.238Z,6.33
2022-11-28T10:26:01.624Z,7.23
2022-11-28T10:28:33.489Z,7.40
2022-11-28T10:31:07.220Z,6.07
2022-11-28T10:33:41.012Z,5.43
2022-11-28T10:36:18.339Z,6.50
2022-11-28T10:38:47.311Z,6.73
2022-11-28T10:41:19.956Z,5.30
2022-11-28T10:43:54.971Z,5.77
2022-11-28T10:46:43.195Z,6.67
2022-11-28T10:49:24.117Z,5.47
2022-11-28T10:52:02.775Z,5.60
2022-11-28T10:54:48.122Z,6.40
2022-11-28T10:57:22.588Z,6.90
2022-11-28T11:00:00.450Z,5.63
2022-11-28T11:02:38.491Z,6.67
2022-11-28T11:05:07.210Z,4.50
2022-11-28T11:07:35.819Z,5.93
2022-11-28T11:10:15.274Z,5.93
2022-11-28T11:12:45.193Z,5.77
2022-11-28T11:15:22.877Z,5.40
2022-11-28T11:17:51.815Z,6.20
2022-11-28T11:20:33.621Z,5.43
2022-11-28T11:23:03.313Z,7.20
2022-11-28T11:25:33.256Z,5.10
2022-11-28T11:28:04.909Z,4.73
2022-11-28T11:30:35.866Z,5.70
2022-11-28T11:33:07.489Z,4.17
2022-11-28T11:35:37.561Z,5.33
2022-11-28T11:38:18.537Z,5.97
2022-11-28T11:40:48.017Z,3.47
2022-11-28T11:43:28.135Z,5.30
2022-11-28T11:46:07.293Z,4.97
2022-11-28T11:48:37.769Z,5.60
2022-11-28T11:51:06.137Z,5.43
2022-11-28T11:53:34.032Z,5.27
2022-11-28T11:56:04.515Z,5.37
2022-11-28T11:58:40.992Z,5.27
2022-11-28T12:01:11.898Z,4.00
2022-11-28T12:03:44.012Z,4.63
2022-11-28T12:06:17.001Z,5.30
2022-11-28T12:08:51.190Z,5.07
2022-11-28T12:11:26.236Z,5.60
2022-11-28T12:13:54.635Z,5.13
2022-11-28T12:16:41.459Z,5.77
2022-11-28T12:19:22.796Z,5.13
2022-11-28T12:22:04.182Z,6.03
2022-11-28T12:24:40.235Z,5.73
2022-11-28T12:27:22.057Z,6.07
2022-11-28T12:30:02.628Z,5.20
2022-11-28T12:32:43.576Z,5.57
2022-11-28T12:35:25.844Z,5.80
2022-11-28T12:38:10.849Z,5.93
2022-11-28T12:40:51.887Z,6.83
2022-11-28T12:43:31.505Z,10.13
2022-11-28T12:46:06.643Z,8.23
2022-11-28T12:48:51.658Z,12.50
2022-11-28T12:51:32.384Z,11.53
2022-11-28T12:54:15.858Z,6.90
2022-11-28T12:56:52.767Z,5.13
2022-11-28T12:59:28.351Z,5.87
2022-11-28T13:02:09.419Z,5.43
2022-11-28T13:04:58.280Z,6.23
2022-11-28T13:07:40.963Z,6.33
2022-11-28T13:10:15.136Z,20.60
2022-11-28T13:12:51.893Z,30.23
2022-11-28T13:15:37.988Z,15.23
2022-11-28T13:18:19.062Z,7.53
2022-11-28T13:20:54.065Z,6.60
2022-11-28T13:23:28.641Z,4.90
2022-11-28T13:26:03.625Z,6.13
2022-11-28T13:28:38.645Z,5.97
2022-11-28T13:31:13.952Z,4.80
2022-11-28T13:33:51.566Z,5.73
2022-11-28T13:39:28.449Z,5.63
2022-11-28T13:42:43.948Z,6.20
2022-11-28T13:45:01.332Z,6.43
2022-11-28T13:47:35.033Z,5.50
2022-11-28T13:50:39.490Z,5.70
2022-11-28T13:53:31.448Z,4.67
2022-11-28T13:56:21.876Z,6.27
2022-11-28T13:58:53.939Z,4.93
2022-11-28T14:01:23.689Z,6.23
2022-11-28T14:04:02.769Z,7.10
2022-11-28T14:06:32.467Z,5.00
2022-11-28T14:09:07.370Z,5.80
2022-11-28T14:12:00.362Z,5.27
2022-11-28T14:14:57.541Z,6.03
2022-11-28T14:17:41.953Z,7.33
2022-11-28T14:20:26.068Z,4.77
2022-11-28T14:23:14.141Z,5.57
2022-11-28T14:25:44.898Z,6.23
2022-11-28T14:28:23.182Z,5.50
2022-11-28T14:30:52.423Z,6.03
2022-11-28T14:33:24.449Z,4.20
2022-11-28T14:36:24.053Z,4.47
2022-11-28T14:39:27.743Z,6.63
2022-11-28T14:45:43.374Z,5.50
2022-11-28T14:48:28.404Z,4.13
2022-11-28T14:51:01.853Z,4.80
2022-11-28T14:53:49.872Z,3.80
2022-11-28T14:56:26.004Z,5.60
2022-11-28T14:58:58.870Z,6.60
2022-11-28T15:01:41.725Z,5.63
2022-11-28T15:04:40.110Z,5.10
2022-11-28T15:07:22.546Z,5.97
2022-11-28T15:10:07.537Z,5.40
2022-11-28T15:12:47.407Z,4.47
2022-11-28T15:15:17.061Z,5.73
2022-11-28T15:17:51.274Z,5.47
2022-11-28T15:20:25.442Z,4.80
2022-11-28T15:22:53.501Z,5.37
2022-11-28T15:25:25.249Z,5.53
2022-11-28T15:27:55.292Z,6.47
2022-11-28T15:30:26.965Z,4.77
2022-11-28T15:32:58.450Z,4.80
2022-11-28T15:35:27.521Z,5.47
2022-11-28T15:37:58.362Z,5.73
2022-11-28T15:40:32.543Z,4.63
2022-11-28T15:43:02.322Z,5.30
2022-11-28T15:45:35.656Z,5.90
2022-11-28T15:48:04.544Z,4.93
2022-11-28T15:50:35.096Z,4.90
2022-11-28T15:53:05.475Z,5.47
2022-11-28T15:55:36.252Z,5.03
2022-11-28T15:58:12.080Z,5.67
2022-11-28T16:00:43.115Z,4.97
2022-11-28T16:03:16.888Z,5.87
2022-11-28T16:05:47.152Z,4.67
2022-11-28T16:08:28.330Z,5.27
2022-11-28T16:10:58.873Z,6.07
2022-11-28T16:13:26.764Z,6.60
2022-11-28T16:15:57.544Z,8.57
2022-11-28T16:18:28.243Z,7.13
2022-11-28T16:20:57.259Z,9.33
2022-11-28T16:23:29.402Z,9.60
2022-11-28T16:26:04.073Z,8.03
2022-11-28T16:28:34.280Z,9.07
2022-11-28T16:31:02.756Z,7.63
2022-11-28T16:33:39.117Z,8.20
2022-11-28T16:36:34.467Z,14.60
2022-11-28T16:39:09.237Z,11.97
2022-11-28T16:41:40.813Z,9.43
2022-11-28T16:44:13.603Z,8.87
2022-11-28T16:46:49.367Z,8.93
2022-11-28T16:49:34.484Z,7.47
2022-11-28T16:52:51.525Z,7.70
2022-11-28T16:55:41.936Z,4.57
2022-11-28T16:58:14.345Z,6.77
2022-11-28T17:00:47.637Z,6.77
2022-11-28T17:03:48.477Z,8.30
2022-11-28T17:06:22.399Z,6.07
2022-11-28T17:08:50.460Z,5.70
2022-11-28T17:11:21.096Z,5.60
2022-11-28T17:13:51.006Z,14.47
2022-11-28T17:16:21.855Z,17.73
2022-11-28T17:18:50.378Z,16.17
2022-11-28T17:21:23.093Z,10.67
2022-11-28T17:23:51.116Z,7.37
2022-11-28T17:26:18.773Z,6.73
2022-11-28T17:28:47.008Z,7.07
2022-11-28T17:31:16.064Z,6.73
2022-11-28T17:33:44.994Z,7.43
2022-11-28T17:36:13.340Z,9.23
2022-11-28T17:38:41.377Z,7.90
2022-11-28T17:41:13.399Z,8.97
2022-11-28T17:43:41.430Z,8.83
2022-11-28T17:46:10.047Z,10.00
2022-11-28T17:48:39.724Z,9.10
2022-11-28T17:51:07.474Z,9.03
2022-11-28T17:53:35.921Z,9.27
2022-11-28T17:56:04.442Z,11.60
2022-11-28T17:58:32.823Z,14.37
2022-11-28T18:01:01.162Z,14.93
2022-11-28T18:03:30.199Z,14.93
2022-11-28T18:05:59.393Z,15.20
2022-11-28T18:08:27.365Z,15.40
2022-11-28T18:11:04.629Z,14.50
2022-11-28T18:13:33.406Z,13.93
2022-11-28T18:16:01.470Z,12.63
2022-11-28T18:18:30.370Z,13.30
2022-11-28T18:21:00.234Z,11.27
2022-11-28T18:23:28.421Z,9.57
2022-11-28T18:25:56.063Z,10.33
2022-11-28T18:28:23.757Z,9.07
2022-11-28T18:30:51.525Z,10.60
2022-11-28T18:33:20.637Z,12.20
2022-11-28T18:35:48.345Z,10.70
2022-11-28T18:38:18.124Z,11.47
2022-11-28T18:40:45.833Z,11.40
2022-11-28T18:43:13.944Z,9.30
2022-11-28T18:45:41.961Z,8.77
2022-11-28T18:48:10.671Z,8.37
2022-11-28T18:50:39.962Z,9.40
2022-11-28T18:53:08.412Z,8.93
2022-11-28T18:55:37.774Z,7.17
2022-11-28T18:58:06.805Z,7.97
2022-11-28T19:00:34.549Z,11.20
2022-11-28T19:03:03.213Z,9.73
2022-11-28T19:05:35.045Z,8.43
2022-11-28T19:08:06.239Z,7.30
2022-11-28T19:10:39.728Z,7.77
2022-11-28T19:13:07.753Z,8.53
2022-11-28T19:15:39.157Z,10.63
2022-11-28T19:18:07.173Z,10.13
2022-11-28T19:20:35.638Z,7.03
2022-11-28T19:23:03.716Z,9.63
2022-11-28T19:25:32.430Z,9.00
2022-11-28T19:28:01.823Z,8.67
2022-11-28T19:30:29.568Z,7.80
2022-11-28T19:32:58.192Z,8.90
2022-11-28T19:35:25.915Z,8.60
2022-11-28T19:37:54.749Z,8.90
2022-11-28T19:40:22.756Z,9.30
2022-11-28T19:42:51.020Z,8.43
2022-11-28T19:45:24.409Z,8.40
2022-11-28T19:47:55.757Z,8.40
2022-11-28T19:50:25.603Z,13.03
2022-11-28T19:52:56.532Z,12.03
2022-11-28T19:55:24.351Z,9.13
2022-11-28T19:57:52.800Z,7.77
2022-11-28T20:00:22.819Z,8.40
2022-11-28T20:02:50.520Z,7.37
2022-11-28T20:05:19.107Z,8.53
2022-11-28T20:07:47.150Z,6.77
2022-11-28T20:10:14.905Z,7.00
2022-11-28T20:12:43.057Z,8.20
2022-11-28T20:15:16.679Z,8.07
2022-11-28T20:17:47.653Z,8.70
2022-11-28T20:20:15.822Z,8.30
2022-11-28T20:22:43.545Z,9.60
2022-11-28T20:25:16.479Z,8.70
2022-11-28T20:27:46.909Z,10.70
2022-11-28T20:30:15.703Z,12.73
2022-11-28T20:32:43.914Z,11.67
2022-11-28T20:35:13.224Z,14.40
2022-11-28T20:37:40.957Z,12.03
2022-11-28T20:40:10.300Z,10.87
2022-11-28T20:42:39.987Z,14.00
2022-11-28T20:45:08.994Z,14.20
2022-11-28T20:47:36.664Z,14.33
2022-11-28T20:50:05.196Z,13.73
2022-11-28T20:52:34.226Z,12.57
2022-11-28T20:55:02.607Z,11.70
2022-11-28T20:57:30.267Z,11.53
2022-11-28T20:59:58.243Z,11.67
2022-11-28T21:02:25.991Z,11.37
2022-11-28T21:04:53.996Z,11.23
2022-11-28T21:07:22.793Z,8.40
2022-11-28T21:09:54.005Z,8.60
2022-11-28T21:12:21.713Z,9.53
2022-11-28T21:14:49.831Z,8.40
2022-11-28T21:17:17.509Z,9.87
2022-11-28T21:19:45.793Z,9.70
2022-11-28T21:22:13.707Z,7.33
2022-11-28T21:24:41.494Z,8.00
2022-11-28T21:27:10.866Z,8.83
2022-11-28T21:29:38.524Z,6.93
2022-11-28T21:32:06.340Z,8.17
2022-11-28T21:34:34.749Z,10.07
2022-11-28T21:37:02.808Z,10.33
2022-11-28T21:39:31.076Z,10.10
2022-11-28T21:41:58.742Z,9.57
2022-11-28T21:44:27.939Z,8.07
2022-11-28T21:46:55.570Z,8.47
2022-11-28T21:49:23.614Z,10.33
2022-11-28T21:51:53.910Z,8.80
2022-11-28T21:54:24.555Z,11.03
2022-11-28T21:56:53.148Z,11.23
2022-11-28T21:59:22.745Z,11.60
2022-11-28T22:01:52.367Z,12.83
2022-11-28T22:04:21.885Z,12.67
2022-11-28T22:06:50.774Z,11.20
2022-11-28T22:09:19.089Z,11.50
2022-11-28T22:11:46.773Z,12.50
2022-11-28T22:14:16.337Z,11.93
2022-11-28T22:16:44.000Z,11.37
2022-11-28T22:19:14.327Z,11.63
2022-11-28T22:21:53.139Z,11.37
2022-11-28T22:24:23.469Z,10.47
2022-11-28T22:26:51.323Z,10.30
2022-11-28T22:29:19.835Z,10.17
2022-11-28T22:31:49.219Z,9.20
2022-11-28T22:34:20.135Z,8.73
2022-11-28T22:36:47.821Z,7.97
2022-11-28T22:39:15.995Z,9.73
2022-11-28T22:41:43.700Z,10.70
2022-11-28T22:44:12.195Z,8.47
2022-11-28T22:46:40.006Z,8.50
2022-11-28T22:49:10.944Z,7.73
2022-11-28T22:51:40.940Z,10.03
2022-11-28T22:54:12.415Z,8.97
2022-11-28T22:56:41.008Z,8.63
2022-11-28T22:59:13.152Z,8.07
2022-11-28T23:01:41.840Z,6.47
2022-11-28T23:04:09.907Z,7.30
2022-11-28T23:06:40.190Z,5.60
2022-11-28T23:09:09.569Z,5.43
2022-11-28T23:11:40.220Z,5.03
2022-11-28T23:14:08.920Z,5.00
2022-11-28T23:16:39.807Z,5.50
2022-11-28T23:19:11.577Z,5.90
2022-11-28T23:21:43.518Z,6.77
2022-11-28T23:24:15.564Z,5.70
2022-11-28T23:26:44.807Z,5.23
2022-11-28T23:29:14.304Z,5.33
2022-11-28T23:31:43.841Z,5.67
2022-11-28T23:34:12.624Z,5.40
2022-11-28T23:36:43.973Z,5.73
2022-11-28T23:39:13.618Z,6.43
2022-11-28T23:41:42.316Z,4.77
2022-11-28T23:44:11.173Z,6.00
2022-11-28T23:46:39.337Z,4.57
2022-11-28T23:49:07.612Z,6.13
2022-11-28T23:51:37.093Z,6.37
2022-11-28T23:54:06.389Z,6.13
2022-11-28T23:56:36.463Z,6.13
2022-11-28T23:59:06.622Z,4.97
